createdAt,value
2019-05-16T00:00:29.312Z,13.93
2019-05-16T00:02:59.027Z,11.50
2019-05-16T00:05:28.185Z,12.47
2019-05-16T00:07:58.934Z,15.33
2019-05-16T00:10:28.450Z,12.13
2019-05-16T00:12:59.543Z,12.17
2019-05-16T00:15:28.877Z,13.83
2019-05-16T00:17:58.542Z,11.40
2019-05-16T00:20:28.409Z,10.77
2019-05-16T00:22:58.935Z,10.87
2019-05-16T00:25:28.541Z,12.27
2019-05-16T00:27:58.713Z,11.70
2019-05-16T00:30:28.714Z,12.60
2019-05-16T00:32:58.851Z,10.23
2019-05-16T00:35:28.554Z,11.90
2019-05-16T00:37:59.116Z,12.07
2019-05-16T00:40:28.446Z,12.70
2019-05-16T00:42:58.861Z,12.53
2019-05-16T00:45:29.581Z,13.60
2019-05-16T00:47:59.331Z,12.63
2019-05-16T00:50:28.742Z,15.40
2019-05-16T00:52:59.007Z,13.83
2019-05-16T00:55:29.035Z,11.13
2019-05-16T00:57:58.889Z,11.83
2019-05-16T01:00:49.880Z,12.23
2019-05-16T01:03:20.205Z,13.70
2019-05-16T01:05:49.326Z,13.63
2019-05-16T01:08:19.103Z,14.13
2019-05-16T01:10:51.332Z,11.83
2019-05-16T01:13:18.947Z,14.03
2019-05-16T01:15:48.669Z,16.30
2019-05-16T01:18:18.739Z,13.50
2019-05-16T01:20:48.316Z,14.77
2019-05-16T01:23:18.182Z,15.30
2019-05-16T01:25:48.295Z,13.60
2019-05-16T01:28:18.028Z,13.70
2019-05-16T01:30:48.856Z,15.53
2019-05-16T01:33:19.285Z,13.53
2019-05-16T01:35:48.151Z,14.27
2019-05-16T01:38:18.128Z,13.07
2019-05-16T01:40:49.225Z,13.47
2019-05-16T01:43:18.044Z,14.37
2019-05-16T01:45:48.739Z,13.50
2019-05-16T01:48:19.059Z,13.70
2019-05-16T01:50:48.509Z,14.57
2019-05-16T01:53:17.887Z,11.47
2019-05-16T01:55:48.788Z,12.43
2019-05-16T01:58:19.984Z,14.73
2019-05-16T02:01:01.213Z,11.87
2019-05-16T02:03:19.463Z,12.73
2019-05-16T02:05:48.312Z,14.90
2019-05-16T02:08:18.208Z,13.63
2019-05-16T02:10:47.833Z,15.70
2019-05-16T02:13:18.034Z,12.23
2019-05-16T02:15:48.928Z,14.60
2019-05-16T02:18:18.366Z,13.37
2019-05-16T02:20:48.113Z,15.77
2019-05-16T02:23:18.888Z,16.93
2019-05-16T02:25:48.859Z,11.90
2019-05-16T02:28:21.120Z,13.27
2019-05-16T02:30:51.351Z,15.37
2019-05-16T02:33:21.441Z,12.63
2019-05-16T02:35:54.804Z,13.43
2019-05-16T02:38:21.417Z,13.10
2019-05-16T02:40:54.922Z,16.93
2019-05-16T02:43:26.259Z,14.93
2019-05-16T02:45:52.322Z,14.80
2019-05-16T02:48:21.770Z,14.97
2019-05-16T02:50:51.460Z,15.33
2019-05-16T02:53:22.350Z,14.10
2019-05-16T02:55:52.061Z,13.87
2019-05-16T02:58:23.471Z,13.77
2019-05-16T03:00:51.918Z,12.53
2019-05-16T03:03:21.634Z,12.23
2019-05-16T03:05:51.246Z,12.67
2019-05-16T03:08:21.469Z,12.00
2019-05-16T03:10:52.207Z,11.23
2019-05-16T03:13:23.055Z,10.93
2019-05-16T03:15:51.979Z,10.67
2019-05-16T03:18:23.731Z,13.23
2019-05-16T03:20:54.701Z,12.10
2019-05-16T03:23:23.583Z,13.70
2019-05-16T03:25:52.445Z,12.07
2019-05-16T03:28:22.319Z,12.40
2019-05-16T03:30:54.281Z,13.10
2019-05-16T03:33:31.703Z,13.43
2019-05-16T03:35:54.448Z,10.93
2019-05-16T03:38:23.288Z,12.77
2019-05-16T03:40:52.128Z,13.17
2019-05-16T03:43:21.965Z,12.03
2019-05-16T03:45:52.330Z,11.80
2019-05-16T03:48:21.651Z,11.97
2019-05-16T03:50:51.180Z,13.33
2019-05-16T03:53:21.118Z,11.87
2019-05-16T03:55:51.883Z,11.67
2019-05-16T03:58:22.500Z,11.37
2019-05-16T04:00:54.430Z,12.27
2019-05-16T04:03:23.428Z,14.30
2019-05-16T04:05:52.977Z,11.97
2019-05-16T04:08:24.988Z,14.07
2019-05-16T04:10:53.272Z,12.33
2019-05-16T04:13:22.358Z,9.67
2019-05-16T04:15:53.760Z,10.93
2019-05-16T04:18:22.733Z,14.00
2019-05-16T04:20:52.654Z,10.57
2019-05-16T04:23:22.008Z,14.33
2019-05-16T04:25:52.217Z,13.43
2019-05-16T04:28:22.496Z,13.80
2019-05-16T04:30:51.808Z,14.33
2019-05-16T04:33:21.936Z,12.50
2019-05-16T04:35:52.708Z,13.23
2019-05-16T04:38:35.126Z,18.00
2019-05-16T04:40:52.840Z,13.27
2019-05-16T04:43:22.609Z,13.27
2019-05-16T04:45:52.668Z,12.07
2019-05-16T04:48:22.542Z,11.07
2019-05-16T04:50:52.438Z,11.37
2019-05-16T04:53:21.795Z,11.13
2019-05-16T04:55:51.943Z,12.57
2019-05-16T04:58:23.442Z,12.40
2019-05-16T05:00:52.510Z,11.53
2019-05-16T05:03:21.500Z,11.70
2019-05-16T05:05:51.482Z,12.37
2019-05-16T05:08:21.811Z,12.30
2019-05-16T05:10:52.038Z,10.53
2019-05-16T05:13:22.421Z,11.40
2019-05-16T05:15:51.534Z,9.43
2019-05-16T05:18:21.406Z,9.27
2019-05-16T05:20:52.256Z,11.23
2019-05-16T05:23:21.301Z,9.27
2019-05-16T05:25:51.489Z,10.03
2019-05-16T05:28:21.460Z,9.20
2019-05-16T05:30:50.739Z,9.23
2019-05-16T05:33:20.986Z,10.10
2019-05-16T05:35:51.114Z,8.67
2019-05-16T05:38:21.293Z,10.20
2019-05-16T05:40:51.407Z,10.57
2019-05-16T05:43:21.596Z,18.90
2019-05-16T05:45:51.600Z,9.67
2019-05-16T05:48:21.515Z,9.47
2019-05-16T05:50:51.121Z,11.97
2019-05-16T05:53:21.071Z,9.73
2019-05-16T05:55:51.070Z,9.67
2019-05-16T05:58:20.776Z,9.07
2019-05-16T06:00:51.951Z,8.20
2019-05-16T06:03:22.390Z,9.17
2019-05-16T06:05:51.455Z,9.33
2019-05-16T06:08:20.450Z,11.57
2019-05-16T06:10:50.454Z,7.20
2019-05-16T06:13:20.514Z,7.57
2019-05-16T06:15:50.909Z,9.17
2019-05-16T06:18:20.500Z,8.00
2019-05-16T06:20:51.155Z,7.93
2019-05-16T06:23:21.060Z,8.93
2019-05-16T06:25:51.056Z,8.27
2019-05-16T06:28:21.092Z,10.00
2019-05-16T06:30:51.597Z,8.13
2019-05-16T06:33:20.919Z,7.87
2019-05-16T06:35:51.348Z,9.33
2019-05-16T06:38:21.203Z,6.30
2019-05-16T06:40:52.626Z,7.53
2019-05-16T06:43:20.824Z,10.20
2019-05-16T06:45:51.296Z,7.43
2019-05-16T06:48:21.429Z,6.07
2019-05-16T06:50:51.523Z,6.77
2019-05-16T06:53:21.324Z,8.00
2019-05-16T06:55:50.799Z,8.27
2019-05-16T06:58:22.279Z,10.40
2019-05-16T07:00:52.169Z,7.27
2019-05-16T07:03:20.918Z,7.00
2019-05-16T07:05:50.605Z,6.40
2019-05-16T07:08:20.395Z,7.47
2019-05-16T07:10:50.927Z,7.03
2019-05-16T07:13:20.012Z,9.50
2019-05-16T07:15:50.187Z,7.03
2019-05-16T07:18:20.976Z,7.80
2019-05-16T07:20:51.015Z,9.10
2019-05-16T07:23:21.239Z,10.00
2019-05-16T07:25:50.909Z,5.47
2019-05-16T07:28:20.984Z,8.57
2019-05-16T07:30:50.282Z,12.83
2019-05-16T07:33:21.269Z,6.90
2019-05-16T07:35:51.187Z,12.03
2019-05-16T07:38:20.707Z,5.30
2019-05-16T07:40:51.137Z,6.30
2019-05-16T07:43:20.776Z,13.17
2019-05-16T07:45:51.448Z,4.93
2019-05-16T07:48:21.749Z,6.93
2019-05-16T07:50:51.095Z,7.03
2019-05-16T07:53:21.449Z,4.50
2019-05-16T07:55:51.098Z,4.07
2019-05-16T07:58:21.754Z,7.97
2019-05-16T08:01:01.685Z,5.40
2019-05-16T08:03:21.164Z,4.30
2019-05-16T08:05:51.465Z,5.90
2019-05-16T08:08:24.356Z,6.43
2019-05-16T08:10:52.159Z,4.67
2019-05-16T08:13:21.345Z,4.93
2019-05-16T08:15:51.088Z,7.17
2019-05-16T08:18:21.545Z,5.07
2019-05-16T08:20:52.572Z,3.27
2019-05-16T08:25:52.128Z,4.13
2019-05-16T08:28:21.839Z,3.73
2019-05-16T08:33:22.269Z,5.77
2019-05-16T08:35:51.929Z,4.93
2019-05-16T08:38:21.735Z,5.30
2019-05-16T08:41:06.487Z,4.10
2019-05-16T08:43:22.222Z,6.30
2019-05-16T08:45:52.069Z,13.90
2019-05-16T08:48:22.997Z,4.30
2019-05-16T08:50:05.206Z,3.07
2019-05-16T08:50:54.741Z,4.20
2019-05-16T08:53:22.508Z,10.47
2019-05-16T08:55:51.451Z,5.43
2019-05-16T08:58:22.650Z,4.40
2019-05-16T09:00:56.201Z,3.47
2019-05-16T09:03:22.447Z,5.23
2019-05-16T09:05:53.477Z,3.17
2019-05-16T09:08:22.393Z,3.20
2019-05-16T09:10:39.201Z,5.90
2019-05-16T09:11:01.637Z,7.20
2019-05-16T09:13:22.079Z,2.57
2019-05-16T09:15:51.003Z,2.83
2019-05-16T09:18:19.807Z,5.43
2019-05-16T09:20:50.317Z,5.23
2019-05-16T09:23:19.382Z,5.80
2019-05-16T09:25:49.258Z,8.63
2019-05-16T09:28:18.496Z,3.70
2019-05-16T09:30:47.526Z,4.63
2019-05-16T09:33:17.660Z,3.67
2019-05-16T09:35:47.880Z,4.03
2019-05-16T09:38:20.285Z,3.17
2019-05-16T09:40:48.223Z,2.93
2019-05-16T09:43:17.987Z,6.77
2019-05-16T09:45:47.524Z,3.97
2019-05-16T09:48:18.937Z,3.07
2019-05-16T09:50:47.098Z,4.60
2019-05-16T09:53:17.035Z,4.43
2019-05-16T09:55:47.296Z,6.00
2019-05-16T09:58:18.022Z,4.23
2019-05-16T10:00:47.691Z,3.23
2019-05-16T10:03:20.348Z,3.30
2019-05-16T10:05:47.364Z,4.80
2019-05-16T10:08:17.363Z,3.87
2019-05-16T10:10:46.664Z,3.30
2019-05-16T10:13:18.301Z,3.83
2019-05-16T10:15:47.455Z,4.47
2019-05-16T10:18:17.030Z,3.37
2019-05-16T10:20:46.006Z,4.57
2019-05-16T10:23:18.024Z,4.53
2019-05-16T10:25:48.089Z,9.40
2019-05-16T10:28:17.420Z,4.43
2019-05-16T10:30:50.045Z,5.50
2019-05-16T10:33:19.091Z,3.67
2019-05-16T10:35:49.408Z,3.57
2019-05-16T10:38:18.222Z,5.43
2019-05-16T10:40:47.681Z,4.43
2019-05-16T10:43:17.254Z,5.97
2019-05-16T10:45:46.599Z,4.20
2019-05-16T10:48:17.507Z,5.40
2019-05-16T10:50:47.847Z,5.03
2019-05-16T10:53:39.780Z,3.53
2019-05-16T10:55:47.763Z,4.30
2019-05-16T10:58:32.869Z,4.53
2019-05-16T11:01:11.802Z,7.50
2019-05-16T11:03:17.983Z,6.30
2019-05-16T11:06:01.393Z,3.70
2019-05-16T11:08:17.512Z,4.45
2019-05-16T11:10:47.627Z,3.10
2019-05-16T11:13:20.367Z,2.80
2019-05-16T11:15:49.587Z,3.55
2019-05-16T11:18:18.713Z,4.15
2019-05-16T11:20:49.294Z,4.67
2019-05-16T11:23:22.932Z,5.55
2019-05-16T11:25:48.735Z,4.08
2019-05-16T11:28:17.968Z,5.33
2019-05-16T11:30:47.775Z,4.92
2019-05-16T11:33:17.699Z,4.30
2019-05-16T11:35:47.637Z,3.90
2019-05-16T11:38:17.747Z,5.85
2019-05-16T11:40:47.769Z,6.28
2019-05-16T11:43:21.121Z,4.70
2019-05-16T11:45:47.459Z,8.83
2019-05-16T11:48:17.166Z,6.42
2019-05-16T11:50:47.985Z,4.10
2019-05-16T11:53:17.609Z,4.33
2019-05-16T11:55:54.338Z,6.42
2019-05-16T11:58:18.113Z,6.45
2019-05-16T12:00:48.158Z,5.13
2019-05-16T12:03:17.709Z,6.97
2019-05-16T12:05:48.280Z,5.28
2019-05-16T12:08:17.648Z,4.78
2019-05-16T12:10:47.188Z,8.15
2019-05-16T12:13:25.394Z,7.85
2019-05-16T12:15:46.852Z,5.72
2019-05-16T12:18:17.267Z,8.28
2019-05-16T12:20:46.355Z,5.78
2019-05-16T12:23:17.133Z,7.97
2019-05-16T12:25:47.615Z,6.83
2019-05-16T12:28:16.862Z,6.70
2019-05-16T12:30:47.175Z,6.70
2019-05-16T12:33:18.829Z,6.35
2019-05-16T12:35:47.587Z,8.30
2019-05-16T12:38:17.248Z,8.63
2019-05-16T12:40:47.834Z,4.65
2019-05-16T12:43:18.023Z,6.37
2019-05-16T12:45:47.518Z,7.58
2019-05-16T12:48:20.077Z,6.97
2019-05-16T12:50:48.027Z,6.53
2019-05-16T12:53:17.272Z,7.53
2019-05-16T12:55:47.612Z,7.70
2019-05-16T12:58:24.997Z,6.35
2019-05-16T13:00:54.065Z,7.62
2019-05-16T13:03:18.211Z,5.42
2019-05-16T13:05:47.759Z,6.60
2019-05-16T13:08:17.383Z,6.30
2019-05-16T13:10:47.093Z,7.17
2019-05-16T13:13:17.713Z,7.20
2019-05-16T13:15:47.710Z,6.97
2019-05-16T13:18:17.105Z,6.65
2019-05-16T13:20:46.932Z,12.05
2019-05-16T13:23:18.270Z,7.17
2019-05-16T13:25:48.182Z,7.37
2019-05-16T13:28:17.310Z,7.62
2019-05-16T13:30:47.098Z,6.00
2019-05-16T13:33:17.708Z,6.83
2019-05-16T13:35:47.291Z,6.72
2019-05-16T13:38:17.331Z,6.72
2019-05-16T13:40:46.803Z,8.18
2019-05-16T13:43:17.420Z,6.70
2019-05-16T13:45:47.162Z,11.48
2019-05-16T13:48:17.255Z,7.28
2019-05-16T13:50:47.341Z,12.33
2019-05-16T13:53:16.797Z,6.28
2019-05-16T13:55:45.702Z,8.33
2019-05-16T13:58:17.659Z,9.75
2019-05-16T14:00:47.828Z,6.42
2019-05-16T14:03:17.918Z,8.28
2019-05-16T14:05:47.815Z,7.35
2019-05-16T14:08:17.121Z,9.60
2019-05-16T14:10:48.705Z,8.55
2019-05-16T14:13:17.086Z,9.13
2019-05-16T14:15:47.326Z,10.80
2019-05-16T14:18:17.685Z,6.30
2019-05-16T14:20:46.827Z,8.13
2019-05-16T14:23:17.708Z,10.88
2019-05-16T14:25:47.950Z,8.60
2019-05-16T14:28:17.560Z,8.58
2019-05-16T14:30:46.867Z,7.30
2019-05-16T14:33:17.224Z,7.92
2019-05-16T14:35:47.263Z,7.75
2019-05-16T14:38:17.562Z,9.08
2019-05-16T14:40:50.168Z,7.33
2019-05-16T14:43:17.448Z,8.53
2019-05-16T14:45:46.774Z,7.10
2019-05-16T14:48:18.174Z,8.98
2019-05-16T14:50:47.109Z,7.70
2019-05-16T14:53:17.993Z,6.85
2019-05-16T14:55:48.920Z,6.92
2019-05-16T14:58:17.739Z,8.18
2019-05-16T15:00:48.996Z,7.80
2019-05-16T15:03:18.077Z,6.95
2019-05-16T15:05:48.082Z,7.92
2019-05-16T15:08:18.133Z,9.58
2019-05-16T15:10:47.245Z,9.23
2019-05-16T15:13:17.552Z,7.50
2019-05-16T15:15:46.843Z,8.43
2019-05-16T15:18:17.747Z,8.78
2019-05-16T15:20:46.879Z,8.88
2019-05-16T15:23:17.509Z,10.98
2019-05-16T15:25:46.407Z,11.75
2019-05-16T15:28:17.239Z,9.53
2019-05-16T15:30:46.936Z,8.73
2019-05-16T15:33:19.388Z,9.03
2019-05-16T15:35:47.170Z,10.78
2019-05-16T15:38:16.683Z,10.40
2019-05-16T15:40:48.183Z,11.35
2019-05-16T15:43:18.082Z,7.15
2019-05-16T15:45:52.143Z,9.13
2019-05-16T15:48:17.656Z,10.15
2019-05-16T15:50:46.834Z,11.53
2019-05-16T15:53:17.480Z,10.13
2019-05-16T15:55:47.092Z,9.68
2019-05-16T15:58:17.984Z,8.43
2019-05-16T16:00:48.807Z,8.60
2019-05-16T16:03:17.936Z,8.25
2019-05-16T16:05:46.792Z,9.90
2019-05-16T16:08:18.239Z,8.05
2019-05-16T16:10:47.827Z,7.60
2019-05-16T16:13:19.900Z,10.15
2019-05-16T16:15:53.211Z,10.72
2019-05-16T16:18:21.602Z,12.18
2019-05-16T16:20:48.507Z,9.40
2019-05-16T16:23:17.953Z,9.23
2019-05-16T16:25:50.685Z,10.20
2019-05-16T16:28:18.040Z,9.53
2019-05-16T16:30:47.946Z,11.45
2019-05-16T16:33:25.546Z,11.30
2019-05-16T16:35:48.004Z,12.15
2019-05-16T16:38:17.374Z,8.63
2019-05-16T16:40:47.994Z,9.70
2019-05-16T16:43:18.541Z,8.68
2019-05-16T16:45:47.900Z,10.18
2019-05-16T16:48:20.080Z,8.30
2019-05-16T16:50:48.909Z,10.15
2019-05-16T16:53:17.787Z,8.45
2019-05-16T16:55:47.593Z,9.55
2019-05-16T16:58:17.503Z,10.93
2019-05-16T17:00:47.701Z,9.78
2019-05-16T17:03:16.972Z,9.48
2019-05-16T17:05:46.507Z,6.62
2019-05-16T17:08:16.793Z,10.18
2019-05-16T17:10:47.706Z,8.88
2019-05-16T17:13:16.988Z,7.60
2019-05-16T17:15:47.361Z,10.38
2019-05-16T17:18:17.412Z,9.43
2019-05-16T17:20:47.687Z,8.05
2019-05-16T17:23:17.417Z,12.05
2019-05-16T17:25:47.156Z,10.60
2019-05-16T17:28:17.333Z,9.08
2019-05-16T17:30:47.177Z,15.15
2019-05-16T17:33:18.319Z,9.40
2019-05-16T17:35:48.859Z,9.98
2019-05-16T17:38:17.715Z,8.75
2019-05-16T17:40:46.689Z,11.55
2019-05-16T17:43:16.484Z,10.88
2019-05-16T17:45:46.976Z,7.53
2019-05-16T17:48:17.529Z,8.48
2019-05-16T17:50:47.408Z,8.83
2019-05-16T17:53:17.263Z,10.80
2019-05-16T17:55:47.281Z,9.20
2019-05-16T17:58:16.646Z,11.18
2019-05-16T18:00:47.118Z,11.05
2019-05-16T18:03:17.317Z,11.97
2019-05-16T18:05:47.522Z,13.35
2019-05-16T18:08:16.644Z,9.65
2019-05-16T18:10:47.209Z,10.10
2019-05-16T18:13:16.090Z,9.98
2019-05-16T18:15:47.142Z,12.05
2019-05-16T18:18:17.730Z,10.18
2019-05-16T18:20:55.743Z,7.45
2019-05-16T18:23:18.243Z,13.22
2019-05-16T18:25:47.106Z,11.38
2019-05-16T18:28:17.503Z,12.90
2019-05-16T18:30:47.229Z,11.45
2019-05-16T18:33:16.732Z,10.50
2019-05-16T18:35:46.606Z,11.63
2019-05-16T18:38:16.572Z,14.95
2019-05-16T18:40:47.362Z,11.65
2019-05-16T18:43:16.650Z,11.15
2019-05-16T18:45:47.220Z,11.70
2019-05-16T18:48:16.502Z,11.93
2019-05-16T18:50:47.583Z,14.37
2019-05-16T18:53:17.755Z,14.10
2019-05-16T18:55:46.987Z,14.27
2019-05-16T18:58:18.039Z,12.53
2019-05-16T19:00:46.796Z,11.67
2019-05-16T19:03:16.465Z,11.65
2019-05-16T19:05:46.293Z,12.13
2019-05-16T19:08:16.365Z,12.93
2019-05-16T19:10:47.360Z,13.03
2019-05-16T19:13:17.079Z,12.20
2019-05-16T19:15:49.290Z,16.80
2019-05-16T19:18:17.138Z,12.73
2019-05-16T19:20:48.681Z,15.83
2019-05-16T19:23:17.477Z,12.17
2019-05-16T19:25:47.417Z,10.67
2019-05-16T19:28:16.672Z,10.47
2019-05-16T19:30:46.567Z,10.13
2019-05-16T19:33:17.493Z,11.57
2019-05-16T19:35:46.924Z,12.50
2019-05-16T19:38:17.028Z,13.07
2019-05-16T19:40:46.919Z,9.30
2019-05-16T19:43:17.502Z,10.93
2019-05-16T19:45:46.640Z,8.37
2019-05-16T19:48:17.436Z,8.33
2019-05-16T19:50:46.404Z,7.23
2019-05-16T19:53:16.473Z,8.77
2019-05-16T19:55:47.036Z,11.77
2019-05-16T19:58:16.191Z,9.10
2019-05-16T20:00:46.474Z,7.40
2019-05-16T20:03:16.679Z,7.13
2019-05-16T20:05:47.586Z,7.40
2019-05-16T20:08:17.492Z,10.60
2019-05-16T20:10:47.728Z,8.43
2019-05-16T20:13:16.732Z,8.97
2019-05-16T20:15:47.101Z,6.03
2019-05-16T20:18:18.624Z,6.30
2019-05-16T20:20:47.387Z,12.20
2019-05-16T20:23:16.646Z,5.70
2019-05-16T20:25:47.025Z,7.67
2019-05-16T20:28:18.435Z,6.23
2019-05-16T20:30:47.603Z,7.73
2019-05-16T20:33:17.941Z,7.20
2019-05-16T20:35:47.047Z,6.97
2019-05-16T20:38:17.276Z,7.80
2019-05-16T20:40:46.668Z,5.70
2019-05-16T20:43:16.895Z,6.57
2019-05-16T20:45:47.722Z,8.33
2019-05-16T20:48:18.489Z,5.83
2019-05-16T20:50:49.177Z,9.23
2019-05-16T20:53:17.717Z,9.37
2019-05-16T20:55:49.554Z,6.50
2019-05-16T20:58:17.368Z,7.80
2019-05-16T21:00:49.570Z,7.73
2019-05-16T21:03:17.035Z,10.50
2019-05-16T21:05:47.934Z,7.03
2019-05-16T21:08:17.234Z,6.37
2019-05-16T21:10:46.536Z,8.13
2019-05-16T21:13:17.185Z,12.47
2019-05-16T21:15:47.700Z,8.90
2019-05-16T21:18:16.765Z,7.70
2019-05-16T21:20:47.030Z,7.43
2019-05-16T21:23:19.090Z,8.33
2019-05-16T21:25:46.900Z,9.53
2019-05-16T21:28:19.455Z,6.63
2019-05-16T21:30:47.355Z,11.63
2019-05-16T21:33:18.616Z,8.80
2019-05-16T21:35:47.150Z,6.83
2019-05-16T21:38:16.678Z,8.20
2019-05-16T21:40:46.051Z,8.80
2019-05-16T21:43:16.696Z,8.23
2019-05-16T21:45:47.291Z,8.60
2019-05-16T21:48:16.344Z,8.03
2019-05-16T21:50:47.132Z,7.70
2019-05-16T21:53:17.715Z,10.77
2019-05-16T21:55:47.231Z,7.93
2019-05-16T21:58:16.680Z,9.63
2019-05-16T22:00:48.820Z,8.77
2019-05-16T22:03:18.026Z,9.57
2019-05-16T22:05:46.874Z,9.90
2019-05-16T22:08:16.825Z,9.17
2019-05-16T22:10:46.820Z,10.97
2019-05-16T22:13:16.107Z,12.17
2019-05-16T22:15:46.415Z,10.03
2019-05-16T22:18:16.554Z,10.50
2019-05-16T22:20:49.055Z,8.63
2019-05-16T22:23:17.316Z,9.73
2019-05-16T22:25:48.973Z,12.20
2019-05-16T22:28:17.335Z,9.23
2019-05-16T22:30:46.332Z,10.73
2019-05-16T22:33:17.741Z,7.03
2019-05-16T22:35:46.434Z,9.43
2019-05-16T22:38:16.872Z,12.43
2019-05-16T22:40:45.760Z,11.23
2019-05-16T22:43:17.235Z,11.10
2019-05-16T22:45:46.813Z,10.07
2019-05-16T22:48:17.251Z,12.63
2019-05-16T22:50:46.739Z,9.93
2019-05-16T22:53:17.250Z,8.73
2019-05-16T22:55:47.755Z,9.40
2019-05-16T22:58:17.384Z,13.60
2019-05-16T23:00:46.723Z,14.43
2019-05-16T23:03:17.392Z,8.43
2019-05-16T23:05:47.386Z,10.63
2019-05-16T23:08:16.679Z,11.47
2019-05-16T23:10:45.447Z,9.33
2019-05-16T23:13:16.832Z,10.73
2019-05-16T23:15:45.127Z,8.03
2019-05-16T23:18:14.155Z,8.27
2019-05-16T23:20:43.499Z,11.93
2019-05-16T23:23:12.259Z,9.00
2019-05-16T23:25:41.003Z,13.83
2019-05-16T23:28:09.852Z,9.53
2019-05-16T23:30:38.585Z,9.30
2019-05-16T23:33:07.492Z,11.13
2019-05-16T23:35:37.592Z,12.20
2019-05-16T23:38:18.611Z,12.27
2019-05-16T23:40:37.911Z,13.77
2019-05-16T23:43:07.619Z,13.03
2019-05-16T23:45:37.600Z,12.67
2019-05-16T23:48:10.438Z,12.93
2019-05-16T23:50:37.579Z,10.70
2019-05-16T23:53:07.254Z,10.53
2019-05-16T23:55:37.332Z,10.27
2019-05-16T23:58:06.972Z,9.33
